createdAt,value
2022-11-05T00:00:38.231Z,69981.91
2022-11-05T00:03:24.291Z,69987.78
2022-11-05T00:06:12.809Z,70005.94
2022-11-05T00:09:00.362Z,69976.06
2022-11-05T00:11:51.185Z,69986.91
2022-11-05T00:14:36.971Z,69983.09
2022-11-05T00:17:04.326Z,70019.97
2022-11-05T00:19:31.585Z,69990.69
2022-11-05T00:22:17.390Z,70001.78
2022-11-05T00:25:03.665Z,70031.66
2022-11-05T00:27:34.083Z,69997.69
2022-11-05T00:30:05.175Z,70026.09
2022-11-05T00:32:32.958Z,70053.91
2022-11-05T00:35:00.599Z,70026.97
2022-11-05T00:37:28.656Z,69982.22
2022-11-05T00:39:56.076Z,70048.63
2022-11-05T00:42:41.902Z,70019.97
2022-11-05T00:45:09.756Z,69989.53
2022-11-05T00:47:56.639Z,70019.97
2022-11-05T00:50:24.737Z,70005.91
2022-11-05T00:52:57.824Z,69983.09
2022-11-05T00:55:30.151Z,70040.44
2022-11-05T00:57:58.288Z,70035.75
2022-11-05T01:00:28.489Z,70002.06
2022-11-05T01:03:04.578Z,70009.44
2022-11-05T01:05:33.149Z,70024.06
2022-11-05T01:08:01.405Z,70072.66
2022-11-05T01:10:29.328Z,70012.34
2022-11-05T01:12:57.193Z,69992.44
2022-11-05T01:15:24.611Z,70024.66
2022-11-05T01:17:52.637Z,70019.66
2022-11-05T01:20:20.112Z,70007.38
2022-11-05T01:22:47.543Z,69999.44
2022-11-05T01:25:15.223Z,70025.22
2022-11-05T01:27:42.583Z,70020.56
2022-11-05T01:30:10.615Z,70031.66
2022-11-05T01:32:38.197Z,70060.34
2022-11-05T01:35:07.356Z,70042.75
2022-11-05T01:37:35.234Z,69984.22
2022-11-05T01:40:02.768Z,69987.75
2022-11-05T01:42:33.264Z,70050.09
2022-11-05T01:45:00.659Z,69992.44
2022-11-05T01:47:43.112Z,70058.56
2022-11-05T01:50:35.034Z,70012.34
2022-11-05T01:53:54.621Z,70053.31
2022-11-05T01:56:29.213Z,70038.69
2022-11-05T01:59:02.324Z,70018.19
2022-11-05T02:01:30.314Z,70033.41
2022-11-05T02:04:04.248Z,70012.66
2022-11-05T02:06:34.923Z,69987.78
2022-11-05T02:09:20.634Z,69999.47
2022-11-05T02:11:49.743Z,69992.75
2022-11-05T02:14:18.323Z,70014.13
2022-11-05T02:16:52.839Z,70003.00
2022-11-05T02:19:45.094Z,70023.47
2022-11-05T02:22:39.629Z,69982.53
2022-11-05T02:25:31.475Z,69988.38
2022-11-05T02:28:20.759Z,69976.66
2022-11-05T02:31:02.782Z,69987.50
2022-11-05T02:34:08.590Z,69974.59
2022-11-05T02:36:41.745Z,69973.72
2022-11-05T02:39:43.681Z,70010.03
2022-11-05T02:42:33.654Z,69990.09
2022-11-05T02:45:18.149Z,69974.00
2022-11-05T02:48:04.653Z,69991.84
2022-11-05T02:50:59.515Z,69994.50
2022-11-05T02:53:40.955Z,69993.03
2022-11-05T02:56:26.770Z,69998.00
2022-11-05T02:58:54.229Z,69997.13
2022-11-05T03:01:21.844Z,70009.72
2022-11-05T03:04:10.690Z,70043.38
2022-11-05T03:06:44.025Z,70027.00
2022-11-05T03:09:32.450Z,69998.31
2022-11-05T03:12:02.620Z,70023.47
2022-11-05T03:15:06.888Z,69968.47
2022-11-05T03:18:03.830Z,70019.97
2022-11-05T03:20:40.092Z,70031.66
2022-11-05T03:23:29.348Z,70032.81
2022-11-05T03:26:06.252Z,70016.44
2022-11-05T03:28:37.894Z,70014.09
2022-11-05T03:31:07.952Z,69962.88
2022-11-05T03:33:38.604Z,70037.22
2022-11-05T03:36:13.987Z,70036.34
2022-11-05T03:38:46.805Z,70038.09
2022-11-05T03:41:16.004Z,70034.59
2022-11-05T03:43:49.248Z,69987.16
2022-11-05T03:46:27.032Z,70040.75
2022-11-05T03:48:57.070Z,70067.09
2022-11-05T03:51:48.480Z,70006.81
2022-11-05T03:54:16.171Z,70035.19
2022-11-05T03:57:07.784Z,70050.69
2022-11-05T03:59:42.336Z,70019.34
2022-11-05T04:02:12.067Z,70019.97
2022-11-05T04:04:39.857Z,70038.69
2022-11-05T04:07:27.264Z,70005.88
2022-11-05T04:10:13.098Z,70040.75
2022-11-05T04:12:59.016Z,70041.03
2022-11-05T04:15:26.969Z,69983.94
2022-11-05T04:17:55.504Z,70009.41
2022-11-05T04:20:41.534Z,69990.38
2022-11-05T04:23:28.184Z,70028.72
2022-11-05T04:25:55.861Z,70010.56
2022-11-05T04:28:43.161Z,69995.66
2022-11-05T04:31:10.446Z,70037.22
2022-11-05T04:33:37.705Z,69986.56
2022-11-05T04:36:05.280Z,70018.19
2022-11-05T04:38:32.532Z,70008.50
2022-11-05T04:41:16.130Z,70020.50
2022-11-05T04:43:44.151Z,70020.50
2022-11-05T04:46:11.785Z,70007.03
2022-11-05T04:48:39.453Z,69997.09
2022-11-05T04:51:07.093Z,70004.69
2022-11-05T04:53:34.469Z,70020.50
2022-11-05T04:56:21.179Z,70019.34
2022-11-05T04:58:48.936Z,70005.31
2022-11-05T05:01:21.349Z,70012.34
2022-11-05T05:03:50.719Z,70006.19
2022-11-05T05:06:19.592Z,70013.19
2022-11-05T05:08:51.227Z,69997.09
2022-11-05T05:11:21.362Z,70005.88
2022-11-05T05:13:49.672Z,69987.44
2022-11-05T05:16:21.499Z,70024.59
2022-11-05T05:18:49.648Z,70046.91
2022-11-05T05:21:36.855Z,69987.19
2022-11-05T05:24:25.090Z,70007.06
2022-11-05T05:26:52.512Z,69954.16
2022-11-05T05:29:19.946Z,69952.66
2022-11-05T05:31:47.239Z,70004.75
2022-11-05T05:34:15.040Z,69986.88
2022-11-05T05:36:42.441Z,70017.31
2022-11-05T05:39:11.130Z,70022.59
2022-11-05T05:41:38.872Z,69994.78
2022-11-05T05:44:06.533Z,69993.31
2022-11-05T05:46:34.368Z,70026.97
2022-11-05T05:49:01.646Z,69971.34
2022-11-05T05:51:29.053Z,70002.97
2022-11-05T05:53:56.336Z,70036.91
2022-11-05T05:56:23.732Z,70001.22
2022-11-05T05:58:51.731Z,70018.78
2022-11-05T06:01:20.273Z,70022.59
2022-11-05T06:03:48.783Z,69969.59
2022-11-05T06:06:19.979Z,70024.06
2022-11-05T06:08:47.611Z,70004.16
2022-11-05T06:11:15.136Z,69971.94
2022-11-05T06:13:42.509Z,69984.53
2022-11-05T06:16:10.525Z,70024.66
2022-11-05T06:18:38.190Z,70014.38
2022-11-05T06:21:11.237Z,69997.72
2022-11-05T06:23:40.079Z,69993.91
2022-11-05T06:26:10.869Z,69971.38
2022-11-05T06:28:38.635Z,69985.41
2022-11-05T06:31:06.386Z,69984.84
2022-11-05T06:33:33.765Z,69998.31
2022-11-05T06:36:02.644Z,69947.38
2022-11-05T06:38:33.248Z,69949.13
2022-11-05T06:41:04.579Z,69993.03
2022-11-05T06:43:36.654Z,69978.94
2022-11-05T06:46:04.777Z,69970.47
2022-11-05T06:48:32.158Z,69983.28
2022-11-05T06:50:59.668Z,69999.09
2022-11-05T06:53:26.961Z,69994.13
2022-11-05T06:55:54.465Z,70007.00
2022-11-05T06:58:21.810Z,70026.31
2022-11-05T07:00:49.359Z,70002.31
2022-11-05T07:03:16.756Z,69981.81
2022-11-05T07:05:48.452Z,69992.63
2022-11-05T07:08:16.173Z,70002.00
2022-11-05T07:10:43.632Z,69978.56
2022-11-05T07:13:11.381Z,69979.41
2022-11-05T07:15:39.049Z,70002.25
2022-11-05T07:18:07.522Z,69992.25
2022-11-05T07:20:35.200Z,70025.94
2022-11-05T07:23:07.654Z,70000.50
2022-11-05T07:25:36.010Z,70002.81
2022-11-05T07:28:03.824Z,69996.34
2022-11-05T07:30:32.869Z,70057.28
2022-11-05T07:33:00.355Z,70016.81
2022-11-05T07:35:27.847Z,70026.53
2022-11-05T07:37:55.901Z,69998.72
2022-11-05T07:40:25.620Z,69991.69
2022-11-05T07:42:55.632Z,69968.84
2022-11-05T07:45:24.176Z,69998.72
2022-11-05T07:47:54.115Z,70006.00
2022-11-05T07:50:24.321Z,70013.91
2022-11-05T07:52:51.876Z,70019.78
2022-11-05T07:55:20.253Z,69993.94
2022-11-05T07:57:50.030Z,70060.47
2022-11-05T08:00:21.460Z,69980.75
2022-11-05T08:03:09.011Z,70040.81
2022-11-05T08:05:39.382Z,70022.09
2022-11-05T08:08:11.018Z,70010.34
2022-11-05T08:10:39.044Z,69987.53
2022-11-05T08:13:07.372Z,70007.44
2022-11-05T08:15:35.277Z,70038.78
2022-11-05T08:18:04.851Z,69995.97
2022-11-05T08:20:33.022Z,70026.75
2022-11-05T08:23:00.374Z,70011.50
2022-11-05T08:25:28.143Z,70008.56
2022-11-05T08:28:07.466Z,70022.03
2022-11-05T08:30:35.179Z,70066.56
2022-11-05T08:33:06.909Z,70031.09
2022-11-05T08:35:36.153Z,69982.09
2022-11-05T08:38:06.585Z,70025.50
2022-11-05T08:40:35.935Z,70067.06
2022-11-05T08:43:05.602Z,70037.78
2022-11-05T08:45:34.268Z,70052.66
2022-11-05T08:48:03.385Z,70056.47
2022-11-05T08:50:31.172Z,70059.97
2022-11-05T08:52:58.740Z,70076.72
2022-11-05T08:55:26.798Z,70044.47
2022-11-05T08:58:01.646Z,70086.09
2022-11-05T09:00:32.122Z,70096.94
2022-11-05T09:03:01.260Z,70063.19
2022-11-05T09:05:30.390Z,70094.56
2022-11-05T09:08:00.934Z,70109.19
2022-11-05T09:10:29.172Z,70124.69
2022-11-05T09:12:56.607Z,70106.19
2022-11-05T09:15:24.920Z,70100.59
2022-11-05T09:17:52.645Z,70103.84
2022-11-05T09:20:20.020Z,70126.66
2022-11-05T09:22:47.585Z,70125.81
2022-11-05T09:25:15.939Z,70140.22
2022-11-05T09:27:43.821Z,70120.28
2022-11-05T09:30:12.856Z,70103.84
2022-11-05T09:32:40.290Z,70119.69
2022-11-05T09:35:08.754Z,70124.28
2022-11-05T09:37:37.246Z,70145.38
2022-11-05T09:40:05.366Z,70146.81
2022-11-05T09:42:41.221Z,70161.50
2022-11-05T09:45:20.356Z,70127.81
2022-11-05T09:47:56.092Z,70166.22
2022-11-05T09:50:40.482Z,70179.41
2022-11-05T09:53:10.858Z,70152.97
2022-11-05T09:55:42.374Z,70142.09
2022-11-05T09:58:31.543Z,70213.97
2022-11-05T10:00:59.862Z,70226.44
2022-11-05T10:03:30.446Z,70333.25
2022-11-05T10:06:08.033Z,70472.94
2022-11-05T10:08:44.936Z,70670.03
2022-11-05T10:11:23.478Z,70723.22
2022-11-05T10:13:59.155Z,70745.72
2022-11-05T10:16:41.124Z,70616.00
2022-11-05T10:19:24.183Z,70756.47
2022-11-05T10:22:07.103Z,70867.34
2022-11-05T10:24:35.013Z,70916.91
2022-11-05T10:27:03.135Z,70987.63
2022-11-05T10:29:33.394Z,71065.38
2022-11-05T10:32:05.537Z,71074.41
2022-11-05T10:34:36.840Z,70827.97
2022-11-05T10:37:04.489Z,70736.22
2022-11-05T10:39:33.909Z,70718.41
2022-11-05T10:42:30.458Z,70619.94
2022-11-05T10:45:14.948Z,70911.25
2022-11-05T10:48:23.727Z,71147.34
2022-11-05T10:50:51.166Z,71000.34
2022-11-05T10:53:30.715Z,71121.56
2022-11-05T10:55:58.781Z,71136.91
2022-11-05T10:58:32.157Z,71229.00
2022-11-05T11:00:59.611Z,71048.41
2022-11-05T11:03:47.137Z,70893.34
2022-11-05T11:06:17.648Z,70908.09
2022-11-05T11:08:47.427Z,70776.84
2022-11-05T11:11:36.651Z,70775.22
2022-11-05T11:14:11.983Z,70676.59
2022-11-05T11:16:42.839Z,70571.28
2022-11-05T11:19:32.063Z,70534.56
2022-11-05T11:22:05.685Z,70451.66
2022-11-05T11:24:40.399Z,70414.56
2022-11-05T11:27:13.731Z,70587.63
2022-11-05T11:29:49.198Z,70865.06
2022-11-05T11:32:20.518Z,71177.22
2022-11-05T11:34:52.859Z,71506.00
2022-11-05T11:37:34.194Z,71740.50
2022-11-05T11:40:15.118Z,71487.09
2022-11-05T11:42:52.734Z,71526.13
2022-11-05T11:45:20.132Z,71472.03
2022-11-05T11:47:50.868Z,71787.84
2022-11-05T11:50:43.827Z,71710.63
2022-11-05T11:53:33.219Z,71197.84
2022-11-05T11:56:04.537Z,70952.75
2022-11-05T11:58:42.558Z,70785.88
2022-11-05T12:01:10.050Z,70758.03
2022-11-05T12:04:00.370Z,70635.50
2022-11-05T12:06:44.201Z,70830.47
2022-11-05T12:09:23.861Z,71159.47
2022-11-05T12:12:03.169Z,71474.69
2022-11-05T12:14:52.317Z,71532.22
2022-11-05T12:17:37.826Z,71708.19
2022-11-05T12:20:31.038Z,71486.69
2022-11-05T12:23:16.288Z,71212.50
2022-11-05T12:26:07.469Z,71101.28
2022-11-05T12:29:16.757Z,71045.72
2022-11-05T12:32:03.145Z,70913.16
2022-11-05T12:34:45.585Z,70661.28
2022-11-05T12:37:23.596Z,70675.53
2022-11-05T12:40:20.550Z,70603.75
2022-11-05T12:43:16.436Z,70509.81
2022-11-05T12:45:52.872Z,70501.84
2022-11-05T12:48:42.591Z,70411.91
2022-11-05T12:51:34.706Z,70394.88
2022-11-05T12:54:31.920Z,70433.22
2022-11-05T12:57:03.730Z,70321.28
2022-11-05T12:59:34.708Z,70316.34
2022-11-05T13:02:24.832Z,70358.03
2022-11-05T13:05:16.900Z,70354.22
2022-11-05T13:08:07.677Z,70340.69
2022-11-05T13:10:58.612Z,70325.06
2022-11-05T13:13:38.684Z,70366.47
2022-11-05T13:16:30.880Z,70360.88
2022-11-05T13:19:23.045Z,70366.13
2022-11-05T13:22:22.811Z,70420.19
2022-11-05T13:24:55.449Z,70403.13
2022-11-05T13:27:42.667Z,70443.38
2022-11-05T13:30:19.729Z,70395.34
2022-11-05T13:32:56.047Z,70426.53
2022-11-05T13:35:29.928Z,70414.69
2022-11-05T13:38:23.217Z,70440.06
2022-11-05T13:41:25.625Z,70467.66
2022-11-05T13:44:43.366Z,70472.91
2022-11-05T13:47:44.414Z,70477.63
2022-11-05T13:50:41.700Z,70478.94
2022-11-05T13:53:42.966Z,70426.81
2022-11-05T13:56:25.243Z,70479.53
2022-11-05T13:59:07.104Z,70415.94
2022-11-05T14:01:44.154Z,70434.81
2022-11-05T14:04:36.567Z,70413.69
2022-11-05T14:07:36.864Z,70402.59
2022-11-05T14:10:25.146Z,70384.09
2022-11-05T14:12:55.482Z,70360.31
2022-11-05T14:15:29.197Z,70337.06
2022-11-05T14:18:02.786Z,70389.16
2022-11-05T14:20:33.102Z,70349.75
2022-11-05T14:23:25.893Z,70328.56
2022-11-05T14:25:53.415Z,70381.88
2022-11-05T14:28:36.158Z,70335.16
2022-11-05T14:31:21.209Z,70350.44
2022-11-05T14:34:08.816Z,70307.31
2022-11-05T14:36:45.216Z,70298.75
2022-11-05T14:39:20.672Z,70297.03
2022-11-05T14:42:16.992Z,70293.22
2022-11-05T14:44:56.606Z,70290.66
2022-11-05T14:47:29.033Z,70270.13
2022-11-05T14:50:09.527Z,70243.13
2022-11-05T14:52:38.787Z,70234.00
2022-11-05T14:55:07.264Z,70247.84
2022-11-05T14:57:43.505Z,70235.22
2022-11-05T15:00:28.927Z,70217.03
2022-11-05T15:02:58.407Z,70248.19
2022-11-05T15:05:33.191Z,70214.50
2022-11-05T15:08:20.992Z,70188.69
2022-11-05T15:10:49.089Z,70183.16
2022-11-05T15:13:33.720Z,70175.28
2022-11-05T15:16:03.366Z,70125.09
2022-11-05T15:18:36.684Z,70161.56
2022-11-05T15:21:04.902Z,70162.16
2022-11-05T15:23:45.034Z,70131.94
2022-11-05T15:26:22.993Z,70176.25
2022-11-05T15:28:55.540Z,70107.94
2022-11-05T15:31:34.246Z,70105.94
2022-11-05T15:34:32.149Z,70122.06
2022-11-05T15:37:20.652Z,70093.91
2022-11-05T15:39:50.807Z,70106.84
2022-11-05T15:42:24.355Z,70068.16
2022-11-05T15:44:54.267Z,70073.19
2022-11-05T15:47:34.586Z,70063.25
2022-11-05T15:50:10.024Z,70044.50
2022-11-05T15:52:53.296Z,70007.31
2022-11-05T15:55:25.721Z,70022.59
2022-11-05T15:58:03.057Z,69992.81
2022-11-05T16:00:33.251Z,70006.81
2022-11-05T16:03:21.216Z,70010.94
2022-11-05T16:05:49.758Z,69976.13
2022-11-05T16:08:29.800Z,69976.13
2022-11-05T16:11:00.814Z,69994.03
2022-11-05T16:13:37.498Z,69959.50
2022-11-05T16:16:14.010Z,69994.66
2022-11-05T16:18:43.299Z,69919.72
2022-11-05T16:21:19.127Z,69941.41
2022-11-05T16:23:49.681Z,69958.09
2022-11-05T16:29:29.101Z,69970.75
2022-11-05T16:31:59.035Z,69884.09
2022-11-05T16:34:42.123Z,69897.00
2022-11-05T16:37:14.897Z,69946.22
2022-11-05T16:39:42.294Z,69931.59
2022-11-05T16:42:24.626Z,69908.78
2022-11-05T16:44:53.366Z,69885.13
2022-11-05T16:47:21.858Z,69848.88
2022-11-05T16:49:49.783Z,69842.16
2022-11-05T16:52:18.095Z,69874.34
2022-11-05T16:54:45.540Z,69831.06
2022-11-05T16:57:32.471Z,69829.28
2022-11-05T17:00:01.044Z,69844.53
2022-11-05T17:02:28.852Z,69837.53
2022-11-05T17:04:56.426Z,69831.16
2022-11-05T17:07:24.027Z,69810.97
2022-11-05T17:09:51.323Z,69803.72
2022-11-05T17:12:18.823Z,69795.53
2022-11-05T17:14:46.208Z,69762.25
2022-11-05T17:17:13.817Z,69811.91
2022-11-05T17:19:42.610Z,69789.44
2022-11-05T17:22:10.305Z,69750.91
2022-11-05T17:24:38.860Z,69780.16
2022-11-05T17:27:06.348Z,69791.81
2022-11-05T17:29:33.958Z,69751.78
2022-11-05T17:32:01.634Z,69768.72
2022-11-05T17:34:29.001Z,69748.00
2022-11-05T17:36:56.460Z,69755.31
2022-11-05T17:39:30.303Z,69762.91
2022-11-05T17:41:58.888Z,69757.03
2022-11-05T17:44:26.393Z,69744.81
2022-11-05T17:46:54.062Z,69711.25
2022-11-05T17:49:21.456Z,69737.00
2022-11-05T17:51:48.807Z,69736.41
2022-11-05T17:54:16.843Z,69705.75
2022-11-05T17:56:44.818Z,69732.63
2022-11-05T17:59:12.367Z,69708.69
2022-11-05T18:01:43.440Z,69692.06
2022-11-05T18:04:11.545Z,69717.47
2022-11-05T18:06:40.310Z,69659.72
2022-11-05T18:09:09.727Z,69678.09
2022-11-05T18:11:38.737Z,69704.66
2022-11-05T18:14:06.811Z,69689.78
2022-11-05T18:16:34.810Z,69693.00
2022-11-05T18:19:02.369Z,69676.66
2022-11-05T18:21:29.780Z,69673.19
2022-11-05T18:23:57.257Z,69706.44
2022-11-05T18:26:24.762Z,69680.16
2022-11-05T18:28:52.153Z,69644.00
2022-11-05T18:31:21.432Z,65189.41
2022-11-05T18:33:49.953Z,69646.34
2022-11-05T18:36:22.479Z,65189.41
2022-11-05T18:38:50.614Z,65189.41
2022-11-05T18:41:19.103Z,65189.41
2022-11-05T18:43:46.731Z,65189.41
2022-11-05T18:46:35.807Z,65189.41
2022-11-05T18:49:01.921Z,65189.41
2022-11-05T18:51:29.365Z,65189.41
2022-11-05T18:53:56.989Z,65189.41
2022-11-05T18:56:24.936Z,65189.41
2022-11-05T18:59:14.743Z,65189.41
2022-11-05T19:01:41.876Z,65189.41
2022-11-05T19:04:10.008Z,65189.41
2022-11-05T19:06:38.889Z,65189.41
2022-11-05T19:09:09.789Z,65189.41
2022-11-05T19:11:38.159Z,65189.41
2022-11-05T19:14:05.966Z,65189.41
2022-11-05T19:16:34.332Z,65189.41
2022-11-05T19:19:04.026Z,65189.41
2022-11-05T19:21:32.226Z,65189.41
2022-11-05T19:24:01.480Z,65189.41
2022-11-05T19:26:29.848Z,65189.41
2022-11-05T19:29:02.766Z,65189.41
2022-11-05T19:31:31.508Z,65189.41
2022-11-05T19:33:59.310Z,65189.41
2022-11-05T19:36:26.854Z,65189.41
2022-11-05T19:38:57.495Z,65189.41
2022-11-05T19:41:25.761Z,65189.41
2022-11-05T19:43:54.365Z,65189.41
2022-11-05T19:46:23.004Z,65189.41
2022-11-05T19:48:51.659Z,65189.41
2022-11-05T19:51:22.358Z,65189.41
2022-11-05T19:53:52.374Z,65189.41
2022-11-05T19:56:25.392Z,65189.41
2022-11-05T19:58:53.684Z,65189.41
2022-11-05T20:01:22.700Z,65189.41
2022-11-05T20:03:50.678Z,65189.41
2022-11-05T20:06:28.678Z,65189.41
2022-11-05T20:11:49.923Z,65189.41
2022-11-05T20:14:17.565Z,65189.41
2022-11-05T20:16:46.411Z,65189.41
2022-11-05T20:19:16.977Z,65189.41
2022-11-05T20:21:44.808Z,65189.41
2022-11-05T20:24:18.636Z,65189.41
2022-11-05T20:26:49.681Z,65189.41
2022-11-05T20:29:17.029Z,65189.41
2022-11-05T20:31:44.471Z,65189.41
2022-11-05T20:34:11.908Z,65189.41
2022-11-05T20:36:39.876Z,65189.41
2022-11-05T20:39:07.632Z,65189.41
2022-11-05T20:41:34.962Z,65189.41
2022-11-05T20:44:02.594Z,65189.41
2022-11-05T20:46:30.569Z,65189.41
2022-11-05T20:48:58.221Z,65189.41
2022-11-05T20:51:25.629Z,65189.41
2022-11-05T20:53:58.488Z,65189.41
2022-11-05T20:56:28.303Z,65189.41
2022-11-05T20:58:58.428Z,65189.41
2022-11-05T21:01:27.707Z,65189.41
2022-11-05T21:03:55.780Z,65189.41
2022-11-05T21:06:23.627Z,65189.41
2022-11-05T21:08:52.266Z,65189.41
2022-11-05T21:11:20.412Z,65189.41
2022-11-05T21:13:48.221Z,65189.41
2022-11-05T21:16:18.625Z,65189.41
2022-11-05T21:18:47.169Z,65189.41
2022-11-05T21:21:20.372Z,65189.41
2022-11-05T21:23:48.410Z,65189.41
2022-11-05T21:26:17.899Z,65189.41
2022-11-05T21:28:45.919Z,65189.41
2022-11-05T21:31:13.464Z,65189.41
2022-11-05T21:33:41.011Z,65189.41
2022-11-05T21:36:11.094Z,65189.41
2022-11-05T21:38:39.687Z,65189.41
2022-11-05T21:41:08.511Z,65189.41
2022-11-05T21:43:38.148Z,65189.41
2022-11-05T21:46:05.898Z,65189.41
2022-11-05T21:48:34.088Z,65189.41
2022-11-05T21:51:23.235Z,65189.41
2022-11-05T21:54:09.623Z,65189.41
2022-11-05T21:56:56.205Z,65189.41
2022-11-05T21:59:43.181Z,65189.41
2022-11-05T22:02:12.828Z,65189.41
2022-11-05T22:04:43.391Z,65189.41
2022-11-05T22:07:15.781Z,65189.41
2022-11-05T22:09:43.739Z,65189.41
2022-11-05T22:12:12.043Z,65189.41
2022-11-05T22:14:40.544Z,65189.41
2022-11-05T22:17:09.471Z,65189.41
2022-11-05T22:19:37.417Z,65189.41
2022-11-05T22:22:06.181Z,65189.41
2022-11-05T22:24:37.979Z,65189.41
2022-11-05T22:27:08.767Z,65189.41
2022-11-05T22:29:36.859Z,65189.41
2022-11-05T22:32:05.445Z,65189.41
2022-11-05T22:34:32.975Z,65189.41
2022-11-05T22:37:00.423Z,65189.41
2022-11-05T22:39:27.992Z,65189.41
2022-11-05T22:41:57.184Z,65189.41
2022-11-05T22:44:26.430Z,65189.41
2022-11-05T22:46:54.643Z,65189.41
2022-11-05T22:49:22.349Z,65189.41
2022-11-05T22:51:49.765Z,65189.41
2022-11-05T22:54:17.564Z,65189.41
2022-11-05T22:56:45.351Z,65189.41
2022-11-05T22:59:15.373Z,65189.41
2022-11-05T23:01:45.045Z,65189.41
2022-11-05T23:04:14.077Z,65189.41
2022-11-05T23:07:00.537Z,65189.41
2022-11-05T23:09:53.044Z,65189.41
2022-11-05T23:12:33.258Z,65189.41
2022-11-05T23:15:02.294Z,65189.41
2022-11-05T23:17:48.753Z,65189.41
2022-11-05T23:20:38.740Z,65189.41
2022-11-05T23:23:29.363Z,65189.41
2022-11-05T23:25:58.200Z,65189.41
2022-11-05T23:28:25.709Z,65189.41
2022-11-05T23:31:11.887Z,65189.41
2022-11-05T23:33:39.254Z,65189.41
2022-11-05T23:36:25.274Z,65189.41
2022-11-05T23:38:52.611Z,65189.41
2022-11-05T23:41:38.562Z,65189.41
2022-11-05T23:44:24.335Z,65189.41
2022-11-05T23:47:10.358Z,65189.41
2022-11-05T23:49:37.703Z,65189.41
2022-11-05T23:52:05.069Z,65189.41
2022-11-05T23:54:32.397Z,65189.41
2022-11-05T23:56:59.715Z,65189.41
2022-11-05T23:59:27.006Z,65189.41
